sensor_id;sensor_type;location;lat;lon;timestamp;P1;durP1;ratioP1;P2;durP2;ratioP2
22113;SDS011;11223;49.968;9.062;2023-05-29T00:02:06;3.47;;;2.93;;
22113;SDS011;11223;49.968;9.062;2023-05-29T00:04:32;3.60;;;3.30;;
22113;SDS011;11223;49.968;9.062;2023-05-29T00:06:57;3.33;;;2.97;;
22113;SDS011;11223;49.968;9.062;2023-05-29T00:09:23;3.63;;;3.30;;
22113;SDS011;11223;49.968;9.062;2023-05-29T00:11:49;3.50;;;3.20;;
22113;SDS011;11223;49.968;9.062;2023-05-29T00:14:17;6.00;;;3.40;;
22113;SDS011;11223;49.968;9.062;2023-05-29T00:16:44;4.47;;;4.05;;
22113;SDS011;11223;49.968;9.062;2023-05-29T00:19:11;3.40;;;3.05;;
22113;SDS011;11223;49.968;9.062;2023-05-29T00:21:38;3.95;;;3.10;;
22113;SDS011;11223;49.968;9.062;2023-05-29T00:24:04;3.25;;;3.05;;
22113;SDS011;11223;49.968;9.062;2023-05-29T00:26:30;3.17;;;2.87;;
22113;SDS011;11223;49.968;9.062;2023-05-29T00:28:56;3.53;;;3.23;;
22113;SDS011;11223;49.968;9.062;2023-05-29T00:31:21;5.03;;;3.87;;
22113;SDS011;11223;49.968;9.062;2023-05-29T00:33:47;4.60;;;3.33;;
22113;SDS011;11223;49.968;9.062;2023-05-29T00:36:12;6.27;;;3.20;;
22113;SDS011;11223;49.968;9.062;2023-05-29T00:38:38;4.07;;;2.87;;
22113;SDS011;11223;49.968;9.062;2023-05-29T00:41:04;3.83;;;3.07;;
22113;SDS011;11223;49.968;9.062;2023-05-29T00:43:30;4.60;;;3.70;;
22113;SDS011;11223;49.968;9.062;2023-05-29T00:45:55;3.93;;;3.30;;
22113;SDS011;11223;49.968;9.062;2023-05-29T00:48:21;6.40;;;3.70;;
22113;SDS011;11223;49.968;9.062;2023-05-29T00:50:47;3.72;;;3.42;;
22113;SDS011;11223;49.968;9.062;2023-05-29T00:53:13;3.63;;;3.27;;
22113;SDS011;11223;49.968;9.062;2023-05-29T00:55:40;3.80;;;3.40;;
22113;SDS011;11223;49.968;9.062;2023-05-29T00:58:05;4.97;;;3.00;;
22113;SDS011;11223;49.968;9.062;2023-05-29T01:00:31;5.80;;;3.70;;
22113;SDS011;11223;49.968;9.062;2023-05-29T01:02:58;3.20;;;2.90;;
22113;SDS011;11223;49.968;9.062;2023-05-29T01:05:27;3.83;;;3.40;;
22113;SDS011;11223;49.968;9.062;2023-05-29T01:07:53;3.50;;;3.20;;
22113;SDS011;11223;49.968;9.062;2023-05-29T01:10:19;5.53;;;3.10;;
22113;SDS011;11223;49.968;9.062;2023-05-29T01:15:45;3.80;;;3.40;;
22113;SDS011;11223;49.968;9.062;2023-05-29T01:18:39;4.35;;;3.33;;
22113;SDS011;11223;49.968;9.062;2023-05-29T01:24:14;4.40;;;2.97;;
22113;SDS011;11223;49.968;9.062;2023-05-29T01:29:35;7.00;;;3.90;;
22113;SDS011;11223;49.968;9.062;2023-05-29T01:32:04;3.58;;;3.22;;
22113;SDS011;11223;49.968;9.062;2023-05-29T01:34:31;4.10;;;3.70;;
22113;SDS011;11223;49.968;9.062;2023-05-29T01:36:57;3.73;;;3.43;;
22113;SDS011;11223;49.968;9.062;2023-05-29T01:39:22;4.10;;;3.57;;
22113;SDS011;11223;49.968;9.062;2023-05-29T01:41:49;4.07;;;3.53;;
22113;SDS011;11223;49.968;9.062;2023-05-29T01:44:16;4.38;;;3.65;;
22113;SDS011;11223;49.968;9.062;2023-05-29T01:46:43;6.53;;;5.78;;
22113;SDS011;11223;49.968;9.062;2023-05-29T01:49:10;3.70;;;3.40;;
22113;SDS011;11223;49.968;9.062;2023-05-29T01:51:36;3.42;;;3.00;;
22113;SDS011;11223;49.968;9.062;2023-05-29T01:54:05;3.92;;;3.50;;
22113;SDS011;11223;49.968;9.062;2023-05-29T01:56:31;4.07;;;3.63;;
22113;SDS011;11223;49.968;9.062;2023-05-29T01:58:58;4.03;;;3.70;;
22113;SDS011;11223;49.968;9.062;2023-05-29T02:01:25;3.63;;;3.33;;
22113;SDS011;11223;49.968;9.062;2023-05-29T02:03:51;4.50;;;3.50;;
22113;SDS011;11223;49.968;9.062;2023-05-29T02:06:17;3.57;;;3.20;;
22113;SDS011;11223;49.968;9.062;2023-05-29T02:08:43;4.20;;;3.60;;
22113;SDS011;11223;49.968;9.062;2023-05-29T02:11:08;4.93;;;4.17;;
22113;SDS011;11223;49.968;9.062;2023-05-29T02:13:34;4.50;;;3.67;;
22113;SDS011;11223;49.968;9.062;2023-05-29T02:15:59;5.50;;;3.27;;
22113;SDS011;11223;49.968;9.062;2023-05-29T02:18:25;4.40;;;3.37;;
22113;SDS011;11223;49.968;9.062;2023-05-29T02:20:51;3.57;;;3.30;;
22113;SDS011;11223;49.968;9.062;2023-05-29T02:23:16;5.40;;;3.47;;
22113;SDS011;11223;49.968;9.062;2023-05-29T02:25:44;4.15;;;3.10;;
22113;SDS011;11223;49.968;9.062;2023-05-29T02:28:09;3.93;;;3.57;;
22113;SDS011;11223;49.968;9.062;2023-05-29T02:30:35;4.30;;;3.50;;
22113;SDS011;11223;49.968;9.062;2023-05-29T02:33:01;6.50;;;5.00;;
22113;SDS011;11223;49.968;9.062;2023-05-29T02:35:26;3.83;;;3.53;;
22113;SDS011;11223;49.968;9.062;2023-05-29T02:37:52;8.40;;;4.50;;
22113;SDS011;11223;49.968;9.062;2023-05-29T02:40:18;5.00;;;3.90;;
22113;SDS011;11223;49.968;9.062;2023-05-29T02:42:45;6.75;;;3.50;;
22113;SDS011;11223;49.968;9.062;2023-05-29T02:45:11;5.20;;;3.65;;
22113;SDS011;11223;49.968;9.062;2023-05-29T02:47:37;4.73;;;3.77;;
22113;SDS011;11223;49.968;9.062;2023-05-29T02:50:03;4.38;;;3.53;;
22113;SDS011;11223;49.968;9.062;2023-05-29T02:52:30;5.40;;;3.83;;
22113;SDS011;11223;49.968;9.062;2023-05-29T02:54:56;3.50;;;3.20;;
22113;SDS011;11223;49.968;9.062;2023-05-29T02:57:23;3.75;;;3.45;;
22113;SDS011;11223;49.968;9.062;2023-05-29T02:59:49;4.20;;;3.60;;
22113;SDS011;11223;49.968;9.062;2023-05-29T03:02:15;4.87;;;4.07;;
22113;SDS011;11223;49.968;9.062;2023-05-29T03:04:40;3.83;;;3.47;;
22113;SDS011;11223;49.968;9.062;2023-05-29T03:07:06;5.27;;;4.30;;
22113;SDS011;11223;49.968;9.062;2023-05-29T03:09:34;4.03;;;3.33;;
22113;SDS011;11223;49.968;9.062;2023-05-29T03:12:00;3.67;;;3.37;;
22113;SDS011;11223;49.968;9.062;2023-05-29T03:14:26;5.72;;;4.07;;
22113;SDS011;11223;49.968;9.062;2023-05-29T03:16:52;3.75;;;3.30;;
22113;SDS011;11223;49.968;9.062;2023-05-29T03:19:18;4.35;;;3.70;;
22113;SDS011;11223;49.968;9.062;2023-05-29T03:21:44;6.57;;;4.00;;
22113;SDS011;11223;49.968;9.062;2023-05-29T03:24:10;5.57;;;3.80;;
22113;SDS011;11223;49.968;9.062;2023-05-29T03:26:36;4.30;;;3.40;;
22113;SDS011;11223;49.968;9.062;2023-05-29T03:29:01;4.67;;;3.90;;
22113;SDS011;11223;49.968;9.062;2023-05-29T03:31:27;3.90;;;3.50;;
22113;SDS011;11223;49.968;9.062;2023-05-29T03:33:53;4.10;;;3.70;;
22113;SDS011;11223;49.968;9.062;2023-05-29T03:36:18;5.83;;;3.53;;
22113;SDS011;11223;49.968;9.062;2023-05-29T03:38:44;3.73;;;3.37;;
22113;SDS011;11223;49.968;9.062;2023-05-29T03:41:10;6.77;;;3.97;;
22113;SDS011;11223;49.968;9.062;2023-05-29T03:43:35;4.93;;;3.77;;
22113;SDS011;11223;49.968;9.062;2023-05-29T03:46:01;6.17;;;3.47;;
22113;SDS011;11223;49.968;9.062;2023-05-29T03:48:27;3.87;;;3.57;;
22113;SDS011;11223;49.968;9.062;2023-05-29T03:50:52;4.17;;;3.37;;
22113;SDS011;11223;49.968;9.062;2023-05-29T03:53:18;4.37;;;3.90;;
22113;SDS011;11223;49.968;9.062;2023-05-29T03:55:44;4.70;;;4.30;;
22113;SDS011;11223;49.968;9.062;2023-05-29T03:58:09;3.77;;;3.37;;
22113;SDS011;11223;49.968;9.062;2023-05-29T04:00:37;6.18;;;3.40;;
22113;SDS011;11223;49.968;9.062;2023-05-29T04:03:03;3.30;;;3.00;;
22113;SDS011;11223;49.968;9.062;2023-05-29T04:05:28;3.83;;;3.40;;
22113;SDS011;11223;49.968;9.062;2023-05-29T04:07:55;4.07;;;3.47;;
22113;SDS011;11223;49.968;9.062;2023-05-29T04:10:20;5.57;;;4.07;;
22113;SDS011;11223;49.968;9.062;2023-05-29T04:12:46;4.47;;;4.07;;
22113;SDS011;11223;49.968;9.062;2023-05-29T04:15:12;4.70;;;4.03;;
22113;SDS011;11223;49.968;9.062;2023-05-29T04:17:38;6.63;;;4.00;;
22113;SDS011;11223;49.968;9.062;2023-05-29T04:20:03;3.90;;;3.50;;
22113;SDS011;11223;49.968;9.062;2023-05-29T04:22:34;5.13;;;3.90;;
22113;SDS011;11223;49.968;9.062;2023-05-29T04:25:01;4.00;;;3.33;;
22113;SDS011;11223;49.968;9.062;2023-05-29T04:27:28;3.97;;;3.67;;
22113;SDS011;11223;49.968;9.062;2023-05-29T04:29:55;4.43;;;3.85;;
22113;SDS011;11223;49.968;9.062;2023-05-29T04:32:21;4.03;;;3.63;;
22113;SDS011;11223;49.968;9.062;2023-05-29T04:34:46;5.67;;;4.60;;
22113;SDS011;11223;49.968;9.062;2023-05-29T04:37:12;6.22;;;3.80;;
22113;SDS011;11223;49.968;9.062;2023-05-29T04:39:39;4.00;;;3.63;;
22113;SDS011;11223;49.968;9.062;2023-05-29T04:42:04;4.63;;;4.13;;
22113;SDS011;11223;49.968;9.062;2023-05-29T04:44:30;4.57;;;4.07;;
22113;SDS011;11223;49.968;9.062;2023-05-29T04:46:56;5.30;;;3.70;;
22113;SDS011;11223;49.968;9.062;2023-05-29T04:49:22;4.63;;;4.13;;
22113;SDS011;11223;49.968;9.062;2023-05-29T04:51:47;4.57;;;4.17;;
22113;SDS011;11223;49.968;9.062;2023-05-29T04:54:13;5.00;;;3.83;;
22113;SDS011;11223;49.968;9.062;2023-05-29T04:56:39;5.00;;;3.70;;
22113;SDS011;11223;49.968;9.062;2023-05-29T04:59:08;5.90;;;4.00;;
22113;SDS011;11223;49.968;9.062;2023-05-29T05:01:34;6.90;;;3.53;;
22113;SDS011;11223;49.968;9.062;2023-05-29T05:03:59;4.60;;;3.90;;
22113;SDS011;11223;49.968;9.062;2023-05-29T05:06:25;4.47;;;3.50;;
22113;SDS011;11223;49.968;9.062;2023-05-29T05:08:51;4.60;;;3.60;;
22113;SDS011;11223;49.968;9.062;2023-05-29T05:11:21;5.70;;;4.07;;
22113;SDS011;11223;49.968;9.062;2023-05-29T05:13:47;6.53;;;3.63;;
22113;SDS011;11223;49.968;9.062;2023-05-29T05:16:13;4.27;;;3.37;;
22113;SDS011;11223;49.968;9.062;2023-05-29T05:18:39;5.90;;;3.90;;
22113;SDS011;11223;49.968;9.062;2023-05-29T05:21:05;8.40;;;3.50;;
22113;SDS011;11223;49.968;9.062;2023-05-29T05:23:31;4.28;;;3.58;;
22113;SDS011;11223;49.968;9.062;2023-05-29T05:25:57;4.30;;;3.90;;
22113;SDS011;11223;49.968;9.062;2023-05-29T05:28:22;4.13;;;3.73;;
22113;SDS011;11223;49.968;9.062;2023-05-29T05:30:48;3.60;;;3.30;;
22113;SDS011;11223;49.968;9.062;2023-05-29T05:33:14;4.93;;;3.60;;
22113;SDS011;11223;49.968;9.062;2023-05-29T05:35:39;5.23;;;3.60;;
22113;SDS011;11223;49.968;9.062;2023-05-29T05:38:05;3.40;;;3.07;;
22113;SDS011;11223;49.968;9.062;2023-05-29T05:40:31;4.10;;;3.70;;
22113;SDS011;11223;49.968;9.062;2023-05-29T05:42:57;3.43;;;3.03;;
22113;SDS011;11223;49.968;9.062;2023-05-29T05:45:22;3.97;;;3.23;;
22113;SDS011;11223;49.968;9.062;2023-05-29T05:47:48;4.10;;;3.33;;
22113;SDS011;11223;49.968;9.062;2023-05-29T05:50:14;4.20;;;3.80;;
22113;SDS011;11223;49.968;9.062;2023-05-29T05:52:40;4.07;;;3.67;;
22113;SDS011;11223;49.968;9.062;2023-05-29T05:55:05;4.33;;;3.13;;
22113;SDS011;11223;49.968;9.062;2023-05-29T05:57:32;4.28;;;2.90;;
22113;SDS011;11223;49.968;9.062;2023-05-29T05:59:59;3.60;;;3.10;;
22113;SDS011;11223;49.968;9.062;2023-05-29T06:02:25;4.70;;;4.05;;
22113;SDS011;11223;49.968;9.062;2023-05-29T06:04:51;4.20;;;3.23;;
22113;SDS011;11223;49.968;9.062;2023-05-29T06:07:16;3.80;;;3.40;;
22113;SDS011;11223;49.968;9.062;2023-05-29T06:09:43;8.10;;;3.50;;
22113;SDS011;11223;49.968;9.062;2023-05-29T06:12:08;4.57;;;3.03;;
22113;SDS011;11223;49.968;9.062;2023-05-29T06:14:34;3.77;;;3.47;;
22113;SDS011;11223;49.968;9.062;2023-05-29T06:17:00;4.20;;;3.43;;
22113;SDS011;11223;49.968;9.062;2023-05-29T06:19:26;3.00;;;2.70;;
22113;SDS011;11223;49.968;9.062;2023-05-29T06:21:52;3.80;;;3.43;;
22113;SDS011;11223;49.968;9.062;2023-05-29T06:24:18;3.83;;;3.07;;
22113;SDS011;11223;49.968;9.062;2023-05-29T06:26:43;6.23;;;3.57;;
22113;SDS011;11223;49.968;9.062;2023-05-29T06:29:09;4.23;;;3.47;;
22113;SDS011;11223;49.968;9.062;2023-05-29T06:31:34;3.77;;;3.47;;
22113;SDS011;11223;49.968;9.062;2023-05-29T06:34:00;3.87;;;2.60;;
22113;SDS011;11223;49.968;9.062;2023-05-29T06:36:26;3.30;;;2.60;;
22113;SDS011;11223;49.968;9.062;2023-05-29T06:38:51;3.13;;;2.63;;
22113;SDS011;11223;49.968;9.062;2023-05-29T06:41:17;3.10;;;2.57;;
22113;SDS011;11223;49.968;9.062;2023-05-29T06:43:43;6.93;;;2.60;;
22113;SDS011;11223;49.968;9.062;2023-05-29T06:46:09;3.20;;;3.00;;
22113;SDS011;11223;49.968;9.062;2023-05-29T06:48:35;3.47;;;3.05;;
22113;SDS011;11223;49.968;9.062;2023-05-29T06:51:01;2.93;;;2.60;;
22113;SDS011;11223;49.968;9.062;2023-05-29T06:53:36;3.20;;;2.70;;
22113;SDS011;11223;49.968;9.062;2023-05-29T06:56:05;3.85;;;3.08;;
22113;SDS011;11223;49.968;9.062;2023-05-29T06:58:31;6.32;;;2.65;;
22113;SDS011;11223;49.968;9.062;2023-05-29T07:00:57;3.78;;;2.75;;
22113;SDS011;11223;49.968;9.062;2023-05-29T07:03:26;3.60;;;2.90;;
22113;SDS011;11223;49.968;9.062;2023-05-29T07:05:52;3.90;;;3.50;;
22113;SDS011;11223;49.968;9.062;2023-05-29T07:08:18;2.80;;;2.30;;
22113;SDS011;11223;49.968;9.062;2023-05-29T07:10:43;3.33;;;2.57;;
22113;SDS011;11223;49.968;9.062;2023-05-29T07:13:09;3.57;;;2.83;;
22113;SDS011;11223;49.968;9.062;2023-05-29T07:15:36;6.27;;;3.17;;
22113;SDS011;11223;49.968;9.062;2023-05-29T07:18:02;5.07;;;3.53;;
22113;SDS011;11223;49.968;9.062;2023-05-29T07:20:27;3.23;;;2.77;;
22113;SDS011;11223;49.968;9.062;2023-05-29T07:22:53;3.13;;;2.77;;
22113;SDS011;11223;49.968;9.062;2023-05-29T07:25:19;4.53;;;2.63;;
22113;SDS011;11223;49.968;9.062;2023-05-29T07:27:44;4.33;;;2.67;;
22113;SDS011;11223;49.968;9.062;2023-05-29T07:30:10;2.70;;;2.33;;
22113;SDS011;11223;49.968;9.062;2023-05-29T07:32:36;3.13;;;2.83;;
22113;SDS011;11223;49.968;9.062;2023-05-29T07:35:02;5.27;;;2.97;;
22113;SDS011;11223;49.968;9.062;2023-05-29T07:37:27;3.77;;;2.70;;
22113;SDS011;11223;49.968;9.062;2023-05-29T07:39:54;2.83;;;2.55;;
22113;SDS011;11223;49.968;9.062;2023-05-29T07:42:20;3.33;;;3.03;;
22113;SDS011;11223;49.968;9.062;2023-05-29T07:44:46;3.27;;;2.50;;
22113;SDS011;11223;49.968;9.062;2023-05-29T07:47:13;3.25;;;2.47;;
22113;SDS011;11223;49.968;9.062;2023-05-29T07:49:38;3.30;;;2.33;;
22113;SDS011;11223;49.968;9.062;2023-05-29T07:52:04;2.37;;;2.17;;
22113;SDS011;11223;49.968;9.062;2023-05-29T07:54:30;3.17;;;2.83;;
22113;SDS011;11223;49.968;9.062;2023-05-29T07:56:58;2.60;;;2.40;;
22113;SDS011;11223;49.968;9.062;2023-05-29T07:59:24;3.25;;;2.78;;
22113;SDS011;11223;49.968;9.062;2023-05-29T08:01:50;2.78;;;2.25;;
22113;SDS011;11223;49.968;9.062;2023-05-29T08:04:16;3.80;;;2.60;;
22113;SDS011;11223;49.968;9.062;2023-05-29T08:06:42;3.13;;;2.40;;
22113;SDS011;11223;49.968;9.062;2023-05-29T08:09:08;3.22;;;2.20;;
22113;SDS011;11223;49.968;9.062;2023-05-29T08:11:35;3.47;;;2.50;;
22113;SDS011;11223;49.968;9.062;2023-05-29T08:14:01;2.28;;;2.08;;
22113;SDS011;11223;49.968;9.062;2023-05-29T08:16:27;4.63;;;3.05;;
22113;SDS011;11223;49.968;9.062;2023-05-29T08:18:53;2.67;;;2.20;;
22113;SDS011;11223;49.968;9.062;2023-05-29T08:21:20;3.40;;;2.72;;
22113;SDS011;11223;49.968;9.062;2023-05-29T08:23:45;3.30;;;2.40;;
22113;SDS011;11223;49.968;9.062;2023-05-29T08:26:11;4.17;;;2.23;;
22113;SDS011;11223;49.968;9.062;2023-05-29T08:28:37;3.28;;;2.17;;
22113;SDS011;11223;49.968;9.062;2023-05-29T08:31:03;5.07;;;3.10;;
22113;SDS011;11223;49.968;9.062;2023-05-29T08:33:28;2.67;;;2.47;;
22113;SDS011;11223;49.968;9.062;2023-05-29T08:35:56;3.00;;;2.70;;
22113;SDS011;11223;49.968;9.062;2023-05-29T08:38:23;5.60;;;2.53;;
22113;SDS011;11223;49.968;9.062;2023-05-29T08:40:50;2.38;;;2.17;;
22113;SDS011;11223;49.968;9.062;2023-05-29T08:43:17;2.90;;;2.60;;
22113;SDS011;11223;49.968;9.062;2023-05-29T08:45:48;2.20;;;2.03;;
22113;SDS011;11223;49.968;9.062;2023-05-29T08:48:19;3.83;;;2.72;;
22113;SDS011;11223;49.968;9.062;2023-05-29T08:50:48;2.60;;;2.40;;
22113;SDS011;11223;49.968;9.062;2023-05-29T08:53:17;2.90;;;2.25;;
22113;SDS011;11223;49.968;9.062;2023-05-29T08:55:44;3.40;;;2.78;;
22113;SDS011;11223;49.968;9.062;2023-05-29T08:58:11;2.50;;;2.30;;
22113;SDS011;11223;49.968;9.062;2023-05-29T09:00:39;3.50;;;2.70;;
22113;SDS011;11223;49.968;9.062;2023-05-29T09:03:05;3.00;;;2.47;;
22113;SDS011;11223;49.968;9.062;2023-05-29T09:05:31;3.90;;;2.50;;
22113;SDS011;11223;49.968;9.062;2023-05-29T09:07:57;2.43;;;2.20;;
22113;SDS011;11223;49.968;9.062;2023-05-29T09:10:23;2.60;;;2.15;;
22113;SDS011;11223;49.968;9.062;2023-05-29T09:12:51;3.13;;;2.03;;
22113;SDS011;11223;49.968;9.062;2023-05-29T09:15:17;3.38;;;2.97;;
22113;SDS011;11223;49.968;9.062;2023-05-29T09:17:51;3.20;;;2.10;;
22113;SDS011;11223;49.968;9.062;2023-05-29T09:20:24;2.40;;;2.10;;
22113;SDS011;11223;49.968;9.062;2023-05-29T09:22:57;4.63;;;2.40;;
22113;SDS011;11223;49.968;9.062;2023-05-29T09:25:28;5.57;;;2.87;;
22113;SDS011;11223;49.968;9.062;2023-05-29T09:27:58;2.07;;;1.97;;
22113;SDS011;11223;49.968;9.062;2023-05-29T09:30:33;2.60;;;1.93;;
22113;SDS011;11223;49.968;9.062;2023-05-29T09:33:07;2.93;;;2.40;;
22113;SDS011;11223;49.968;9.062;2023-05-29T09:35:43;3.00;;;2.20;;
22113;SDS011;11223;49.968;9.062;2023-05-29T09:38:11;4.50;;;2.43;;
22113;SDS011;11223;49.968;9.062;2023-05-29T09:40:38;2.63;;;2.37;;
22113;SDS011;11223;49.968;9.062;2023-05-29T09:43:11;2.97;;;2.17;;
22113;SDS011;11223;49.968;9.062;2023-05-29T09:45:39;3.13;;;2.00;;
22113;SDS011;11223;49.968;9.062;2023-05-29T09:48:06;4.60;;;2.30;;
22113;SDS011;11223;49.968;9.062;2023-05-29T09:50:33;2.50;;;1.63;;
22113;SDS011;11223;49.968;9.062;2023-05-29T09:52:59;3.43;;;2.70;;
22113;SDS011;11223;49.968;9.062;2023-05-29T09:55:26;2.73;;;2.53;;
22113;SDS011;11223;49.968;9.062;2023-05-29T09:57:53;2.83;;;2.23;;
22113;SDS011;11223;49.968;9.062;2023-05-29T10:00:20;3.23;;;2.40;;
22113;SDS011;11223;49.968;9.062;2023-05-29T10:02:47;2.70;;;1.70;;
22113;SDS011;11223;49.968;9.062;2023-05-29T10:05:14;2.90;;;1.90;;
22113;SDS011;11223;49.968;9.062;2023-05-29T10:07:43;4.23;;;2.70;;
22113;SDS011;11223;49.968;9.062;2023-05-29T10:10:12;4.03;;;2.70;;
22113;SDS011;11223;49.968;9.062;2023-05-29T10:12:39;2.90;;;2.30;;
22113;SDS011;11223;49.968;9.062;2023-05-29T10:15:13;3.33;;;2.47;;
22113;SDS011;11223;49.968;9.062;2023-05-29T10:18:02;2.33;;;2.13;;
22113;SDS011;11223;49.968;9.062;2023-05-29T10:20:31;2.50;;;2.07;;
22113;SDS011;11223;49.968;9.062;2023-05-29T10:22:59;5.90;;;1.83;;
22113;SDS011;11223;49.968;9.062;2023-05-29T10:25:28;2.30;;;2.10;;
22113;SDS011;11223;49.968;9.062;2023-05-29T10:27:55;2.70;;;2.10;;
22113;SDS011;11223;49.968;9.062;2023-05-29T10:30:37;2.80;;;1.77;;
22113;SDS011;11223;49.968;9.062;2023-05-29T10:33:19;1.90;;;1.80;;
22113;SDS011;11223;49.968;9.062;2023-05-29T10:36:04;3.97;;;2.80;;
22113;SDS011;11223;49.968;9.062;2023-05-29T10:38:37;2.37;;;2.17;;
22113;SDS011;11223;49.968;9.062;2023-05-29T10:43:51;2.40;;;1.83;;
22113;SDS011;11223;49.968;9.062;2023-05-29T10:47:23;3.10;;;2.07;;
22113;SDS011;11223;49.968;9.062;2023-05-29T10:49:18;4.23;;;3.73;;
22113;SDS011;11223;49.968;9.062;2023-05-29T10:51:45;2.80;;;2.10;;
22113;SDS011;11223;49.968;9.062;2023-05-29T10:54:11;3.77;;;2.27;;
22113;SDS011;11223;49.968;9.062;2023-05-29T10:56:38;3.77;;;2.23;;
22113;SDS011;11223;49.968;9.062;2023-05-29T10:59:06;3.23;;;2.97;;
22113;SDS011;11223;49.968;9.062;2023-05-29T11:01:33;2.83;;;1.80;;
22113;SDS011;11223;49.968;9.062;2023-05-29T11:06:42;2.73;;;2.47;;
22113;SDS011;11223;49.968;9.062;2023-05-29T11:15:20;2.10;;;2.00;;
22113;SDS011;11223;49.968;9.062;2023-05-29T11:17:46;2.63;;;2.43;;
22113;SDS011;11223;49.968;9.062;2023-05-29T11:20:56;2.60;;;2.27;;
22113;SDS011;11223;49.968;9.062;2023-05-29T11:23:03;2.27;;;2.03;;
22113;SDS011;11223;49.968;9.062;2023-05-29T11:25:37;2.80;;;2.57;;
22113;SDS011;11223;49.968;9.062;2023-05-29T11:28:03;2.30;;;2.10;;
22113;SDS011;11223;49.968;9.062;2023-05-29T11:30:40;3.47;;;2.43;;
22113;SDS011;11223;49.968;9.062;2023-05-29T11:33:16;3.00;;;1.90;;
22113;SDS011;11223;49.968;9.062;2023-05-29T11:35:49;3.07;;;2.83;;
22113;SDS011;11223;49.968;9.062;2023-05-29T11:38:20;3.53;;;2.80;;
22113;SDS011;11223;49.968;9.062;2023-05-29T11:40:46;2.50;;;2.30;;
22113;SDS011;11223;49.968;9.062;2023-05-29T11:43:14;3.50;;;3.20;;
22113;SDS011;11223;49.968;9.062;2023-05-29T11:45:40;2.87;;;2.67;;
22113;SDS011;11223;49.968;9.062;2023-05-29T11:48:05;4.30;;;2.87;;
22113;SDS011;11223;49.968;9.062;2023-05-29T11:50:32;2.77;;;2.57;;
22113;SDS011;11223;49.968;9.062;2023-05-29T11:52:59;2.80;;;2.40;;
22113;SDS011;11223;49.968;9.062;2023-05-29T11:55:25;5.60;;;2.70;;
22113;SDS011;11223;49.968;9.062;2023-05-29T11:57:58;1.90;;;1.50;;
22113;SDS011;11223;49.968;9.062;2023-05-29T12:00:25;3.57;;;2.97;;
22113;SDS011;11223;49.968;9.062;2023-05-29T12:02:57;2.60;;;2.40;;
22113;SDS011;11223;49.968;9.062;2023-05-29T12:05:23;2.90;;;2.60;;
22113;SDS011;11223;49.968;9.062;2023-05-29T12:07:53;3.17;;;2.73;;
22113;SDS011;11223;49.968;9.062;2023-05-29T12:10:21;5.53;;;3.63;;
22113;SDS011;11223;49.968;9.062;2023-05-29T12:12:49;2.30;;;2.10;;
22113;SDS011;11223;49.968;9.062;2023-05-29T12:15:20;3.77;;;2.60;;
22113;SDS011;11223;49.968;9.062;2023-05-29T12:17:47;2.60;;;2.40;;
22113;SDS011;11223;49.968;9.062;2023-05-29T12:20:14;2.60;;;2.40;;
22113;SDS011;11223;49.968;9.062;2023-05-29T12:22:40;2.40;;;2.20;;
22113;SDS011;11223;49.968;9.062;2023-05-29T12:25:08;2.70;;;2.30;;
22113;SDS011;11223;49.968;9.062;2023-05-29T12:27:41;3.50;;;2.73;;
22113;SDS011;11223;49.968;9.062;2023-05-29T12:30:29;2.87;;;2.60;;
22113;SDS011;11223;49.968;9.062;2023-05-29T12:32:56;3.57;;;2.60;;
22113;SDS011;11223;49.968;9.062;2023-05-29T12:35:26;2.77;;;2.20;;
22113;SDS011;11223;49.968;9.062;2023-05-29T12:40:32;3.37;;;2.80;;
22113;SDS011;11223;49.968;9.062;2023-05-29T12:42:59;3.00;;;2.57;;
22113;SDS011;11223;49.968;9.062;2023-05-29T12:45:28;2.50;;;2.30;;
22113;SDS011;11223;49.968;9.062;2023-05-29T12:50:21;3.30;;;2.70;;
22113;SDS011;11223;49.968;9.062;2023-05-29T12:52:55;2.90;;;2.43;;
22113;SDS011;11223;49.968;9.062;2023-05-29T12:55:21;2.57;;;2.27;;
22113;SDS011;11223;49.968;9.062;2023-05-29T12:57:47;3.20;;;2.70;;
22113;SDS011;11223;49.968;9.062;2023-05-29T13:00:13;2.87;;;2.67;;
22113;SDS011;11223;49.968;9.062;2023-05-29T13:02:39;2.43;;;2.10;;
22113;SDS011;11223;49.968;9.062;2023-05-29T13:05:05;3.77;;;2.00;;
22113;SDS011;11223;49.968;9.062;2023-05-29T13:07:31;2.47;;;2.27;;
22113;SDS011;11223;49.968;9.062;2023-05-29T13:09:58;2.70;;;2.50;;
22113;SDS011;11223;49.968;9.062;2023-05-29T13:12:24;4.33;;;2.83;;
22113;SDS011;11223;49.968;9.062;2023-05-29T13:14:50;2.33;;;2.13;;
22113;SDS011;11223;49.968;9.062;2023-05-29T13:17:16;3.77;;;3.47;;
22113;SDS011;11223;49.968;9.062;2023-05-29T13:19:42;3.07;;;2.70;;
22113;SDS011;11223;49.968;9.062;2023-05-29T13:22:08;3.20;;;2.57;;
22113;SDS011;11223;49.968;9.062;2023-05-29T13:24:33;2.70;;;2.33;;
22113;SDS011;11223;49.968;9.062;2023-05-29T13:26:59;3.00;;;2.73;;
22113;SDS011;11223;49.968;9.062;2023-05-29T13:29:25;4.30;;;2.83;;
22113;SDS011;11223;49.968;9.062;2023-05-29T13:31:51;3.73;;;2.30;;
22113;SDS011;11223;49.968;9.062;2023-05-29T13:34:17;2.73;;;2.53;;
22113;SDS011;11223;49.968;9.062;2023-05-29T13:36:42;4.53;;;2.93;;
22113;SDS011;11223;49.968;9.062;2023-05-29T13:39:09;3.97;;;2.80;;
22113;SDS011;11223;49.968;9.062;2023-05-29T13:41:35;2.50;;;2.30;;
22113;SDS011;11223;49.968;9.062;2023-05-29T13:44:01;2.63;;;2.43;;
22113;SDS011;11223;49.968;9.062;2023-05-29T13:46:26;3.93;;;2.83;;
22113;SDS011;11223;49.968;9.062;2023-05-29T13:48:52;3.20;;;2.53;;
22113;SDS011;11223;49.968;9.062;2023-05-29T13:51:18;2.50;;;2.30;;
22113;SDS011;11223;49.968;9.062;2023-05-29T13:53:43;4.27;;;3.10;;
22113;SDS011;11223;49.968;9.062;2023-05-29T13:56:09;3.07;;;2.80;;
22113;SDS011;11223;49.968;9.062;2023-05-29T13:58:34;3.73;;;2.70;;
22113;SDS011;11223;49.968;9.062;2023-05-29T14:01:00;3.80;;;2.53;;
22113;SDS011;11223;49.968;9.062;2023-05-29T14:03:26;2.63;;;2.40;;
22113;SDS011;11223;49.968;9.062;2023-05-29T14:05:53;2.70;;;2.33;;
22113;SDS011;11223;49.968;9.062;2023-05-29T14:08:19;3.23;;;2.07;;
22113;SDS011;11223;49.968;9.062;2023-05-29T14:10:45;3.03;;;2.60;;
22113;SDS011;11223;49.968;9.062;2023-05-29T14:13:11;3.30;;;2.80;;
22113;SDS011;11223;49.968;9.062;2023-05-29T14:15:36;3.30;;;2.47;;
22113;SDS011;11223;49.968;9.062;2023-05-29T14:18:02;2.67;;;2.47;;
22113;SDS011;11223;49.968;9.062;2023-05-29T14:20:28;4.13;;;2.97;;
22113;SDS011;11223;49.968;9.062;2023-05-29T14:22:54;2.40;;;2.20;;
22113;SDS011;11223;49.968;9.062;2023-05-29T14:25:20;3.93;;;2.70;;
22113;SDS011;11223;49.968;9.062;2023-05-29T14:27:45;2.53;;;2.33;;
22113;SDS011;11223;49.968;9.062;2023-05-29T14:30:11;2.70;;;2.30;;
22113;SDS011;11223;49.968;9.062;2023-05-29T14:32:37;4.23;;;3.00;;
22113;SDS011;11223;49.968;9.062;2023-05-29T14:35:02;2.93;;;2.10;;
22113;SDS011;11223;49.968;9.062;2023-05-29T14:37:28;3.13;;;2.63;;
22113;SDS011;11223;49.968;9.062;2023-05-29T14:39:53;3.40;;;2.90;;
22113;SDS011;11223;49.968;9.062;2023-05-29T14:42:19;3.17;;;2.87;;
22113;SDS011;11223;49.968;9.062;2023-05-29T14:44:45;3.27;;;2.90;;
22113;SDS011;11223;49.968;9.062;2023-05-29T14:47:11;2.50;;;2.30;;
22113;SDS011;11223;49.968;9.062;2023-05-29T14:49:37;2.70;;;1.97;;
22113;SDS011;11223;49.968;9.062;2023-05-29T14:52:03;3.97;;;3.47;;
22113;SDS011;11223;49.968;9.062;2023-05-29T14:54:29;3.00;;;2.70;;
22113;SDS011;11223;49.968;9.062;2023-05-29T14:56:55;2.90;;;2.50;;
22113;SDS011;11223;49.968;9.062;2023-05-29T14:59:22;2.93;;;2.73;;
22113;SDS011;11223;49.968;9.062;2023-05-29T15:01:48;2.90;;;2.70;;
22113;SDS011;11223;49.968;9.062;2023-05-29T15:04:16;2.83;;;2.20;;
22113;SDS011;11223;49.968;9.062;2023-05-29T15:06:42;3.97;;;2.47;;
22113;SDS011;11223;49.968;9.062;2023-05-29T15:09:07;3.33;;;3.03;;
22113;SDS011;11223;49.968;9.062;2023-05-29T15:11:33;4.93;;;2.77;;
22113;SDS011;11223;49.968;9.062;2023-05-29T15:13:59;2.60;;;2.40;;